createdAt,value
2022-09-01T00:00:16.646Z,16.59
2022-09-01T00:01:16.627Z,16.66
2022-09-01T00:02:16.671Z,16.70
2022-09-01T00:03:16.572Z,16.62
2022-09-01T00:04:16.618Z,16.72
2022-09-01T00:05:16.565Z,16.69
2022-09-01T00:06:16.531Z,16.65
2022-09-01T00:07:16.552Z,16.80
2022-09-01T00:08:18.376Z,16.75
2022-09-01T00:09:16.496Z,16.72
2022-09-01T00:10:16.508Z,16.84
2022-09-01T00:11:16.483Z,16.70
2022-09-01T00:12:16.470Z,16.75
2022-09-01T00:13:16.462Z,16.88
2022-09-01T00:14:30.626Z,16.88
2022-09-01T00:15:17.508Z,16.99
2022-09-01T00:16:16.491Z,17.03
2022-09-01T00:17:16.404Z,17.00
2022-09-01T00:18:16.525Z,17.12
2022-09-01T00:19:16.388Z,16.99
2022-09-01T00:20:20.313Z,17.06
2022-09-01T00:21:16.410Z,17.09
2022-09-01T00:22:16.382Z,17.03
2022-09-01T00:23:16.359Z,17.06
2022-09-01T00:24:16.351Z,17.15
2022-09-01T00:25:16.360Z,17.06
2022-09-01T00:26:16.384Z,17.09
2022-09-01T00:27:16.301Z,17.20
2022-09-01T00:28:16.334Z,17.14
2022-09-01T00:29:16.291Z,17.12
2022-09-01T00:30:16.278Z,17.10
2022-09-01T00:31:16.331Z,17.15
2022-09-01T00:32:16.266Z,17.00
2022-09-01T00:33:16.265Z,16.98
2022-09-01T00:34:16.221Z,16.95
2022-09-01T00:35:16.265Z,16.84
2022-09-01T00:36:16.282Z,16.78
2022-09-01T00:37:16.215Z,16.77
2022-09-01T00:38:16.270Z,16.80
2022-09-01T00:39:16.162Z,16.75
2022-09-01T00:40:16.249Z,16.82
2022-09-01T00:41:16.185Z,16.75
2022-09-01T00:42:16.146Z,16.80
2022-09-01T00:43:16.190Z,16.78
2022-09-01T00:44:16.110Z,16.67
2022-09-01T00:45:16.101Z,16.72
2022-09-01T00:46:18.315Z,16.69
2022-09-01T00:47:16.082Z,16.63
2022-09-01T00:48:16.211Z,16.57
2022-09-01T00:49:16.066Z,16.47
2022-09-01T00:50:16.052Z,16.40
2022-09-01T00:51:16.058Z,16.42
2022-09-01T00:52:16.049Z,16.34
2022-09-01T00:53:16.045Z,16.25
2022-09-01T00:54:16.046Z,16.17
2022-09-01T00:55:15.992Z,16.17
2022-09-01T00:56:16.013Z,16.06
2022-09-01T00:57:15.975Z,15.99
2022-09-01T00:58:19.580Z,16.13
2022-09-01T00:59:15.944Z,16.10
2022-09-01T01:00:15.936Z,16.11
2022-09-01T01:01:16.022Z,16.04
2022-09-01T01:02:16.037Z,16.10
2022-09-01T01:03:15.916Z,16.06
2022-09-01T01:04:15.922Z,15.96
2022-09-01T01:05:15.889Z,15.92
2022-09-01T01:06:15.879Z,15.81
2022-09-01T01:07:15.865Z,15.81
2022-09-01T01:08:15.926Z,15.66
2022-09-01T01:09:15.855Z,15.74
2022-09-01T01:10:15.832Z,15.52
2022-09-01T01:11:15.832Z,15.49
2022-09-01T01:12:15.811Z,15.40
2022-09-01T01:13:15.809Z,15.33
2022-09-01T01:14:15.822Z,15.20
2022-09-01T01:15:15.782Z,15.12
2022-09-01T01:16:15.838Z,15.13
2022-09-01T01:17:15.794Z,15.12
2022-09-01T01:18:22.867Z,14.97
2022-09-01T01:19:16.734Z,14.95
2022-09-01T01:20:15.722Z,14.83
2022-09-01T01:21:15.742Z,14.79
2022-09-01T01:22:15.728Z,14.85
2022-09-01T01:23:15.687Z,14.98
2022-09-01T01:24:15.676Z,15.13
2022-09-01T01:25:15.678Z,15.44
2022-09-01T01:26:15.680Z,15.48
2022-09-01T01:27:15.681Z,15.62
2022-09-01T01:28:15.660Z,15.80
2022-09-01T01:29:15.680Z,15.91
2022-09-01T01:30:15.616Z,16.10
2022-09-01T01:31:15.699Z,16.17
2022-09-01T01:32:15.591Z,16.11
2022-09-01T01:33:15.592Z,16.14
2022-09-01T01:34:15.576Z,16.04
2022-09-01T01:35:15.568Z,16.06
2022-09-01T01:36:15.580Z,16.08
2022-09-01T01:37:15.575Z,16.04
2022-09-01T01:38:15.534Z,15.99
2022-09-01T01:39:15.527Z,15.86
2022-09-01T01:40:15.708Z,15.85
2022-09-01T01:41:15.543Z,15.73
2022-09-01T01:42:15.507Z,15.74
2022-09-01T01:43:15.484Z,15.66
2022-09-01T01:44:15.477Z,15.67
2022-09-01T01:45:15.452Z,15.66
2022-09-01T01:46:15.551Z,15.62
2022-09-01T01:47:15.524Z,15.64
2022-09-01T01:48:15.426Z,15.62
2022-09-01T01:49:15.423Z,15.40
2022-09-01T01:50:15.452Z,15.40
2022-09-01T01:51:15.392Z,15.38
2022-09-01T01:52:15.394Z,15.37
2022-09-01T01:53:15.376Z,15.38
2022-09-01T01:54:15.361Z,15.37
2022-09-01T01:55:15.344Z,15.41
2022-09-01T01:56:15.374Z,15.31
2022-09-01T01:57:15.348Z,15.13
2022-09-01T01:58:15.315Z,15.12
2022-09-01T01:59:15.307Z,15.01
2022-09-01T02:00:15.310Z,14.90
2022-09-01T02:01:15.373Z,14.82
2022-09-01T02:02:15.353Z,14.75
2022-09-01T02:03:15.285Z,14.75
2022-09-01T02:04:15.260Z,14.87
2022-09-01T02:05:15.238Z,14.83
2022-09-01T02:06:15.282Z,14.80
2022-09-01T02:07:15.244Z,14.75
2022-09-01T02:08:15.204Z,14.72
2022-09-01T02:09:15.196Z,14.67
2022-09-01T02:10:15.181Z,14.67
2022-09-01T02:11:15.197Z,14.61
2022-09-01T02:12:16.056Z,14.78
2022-09-01T02:13:15.199Z,14.85
2022-09-01T02:14:15.159Z,14.95
2022-09-01T02:15:15.137Z,14.94
2022-09-01T02:16:15.200Z,14.79
2022-09-01T02:17:15.108Z,14.82
2022-09-01T02:18:15.136Z,14.75
2022-09-01T02:19:15.090Z,14.63
2022-09-01T02:20:15.100Z,14.45
2022-09-01T02:21:18.349Z,14.39
2022-09-01T02:22:15.078Z,14.38
2022-09-01T02:23:15.055Z,14.34
2022-09-01T02:24:15.098Z,14.21
2022-09-01T02:25:15.026Z,14.27
2022-09-01T02:26:16.866Z,14.29
2022-09-01T02:27:15.064Z,14.36
2022-09-01T02:28:15.008Z,14.42
2022-09-01T02:29:14.988Z,14.34
2022-09-01T02:30:14.994Z,14.30
2022-09-01T02:31:15.071Z,14.27
2022-09-01T02:32:14.952Z,14.27
2022-09-01T02:33:14.940Z,14.29
2022-09-01T02:34:14.990Z,14.48
2022-09-01T02:35:14.947Z,14.53
2022-09-01T02:36:14.922Z,14.66
2022-09-01T02:37:14.916Z,14.66
2022-09-01T02:38:14.899Z,14.64
2022-09-01T02:39:14.882Z,14.72
2022-09-01T02:40:14.903Z,14.64
2022-09-01T02:41:14.866Z,14.67
2022-09-01T02:42:14.895Z,14.63
2022-09-01T02:43:14.838Z,14.61
2022-09-01T02:44:14.845Z,14.67
2022-09-01T02:45:14.865Z,14.63
2022-09-01T02:46:14.975Z,14.64
2022-09-01T02:47:14.793Z,14.78
2022-09-01T02:48:14.792Z,14.80
2022-09-01T02:49:14.772Z,14.94
2022-09-01T02:50:14.810Z,14.93
2022-09-01T02:51:14.785Z,14.98
2022-09-01T02:52:14.766Z,14.97
2022-09-01T02:53:14.721Z,15.05
2022-09-01T02:54:14.745Z,15.11
2022-09-01T02:55:14.707Z,15.12
2022-09-01T02:56:14.694Z,15.18
2022-09-01T02:57:14.688Z,15.18
2022-09-01T02:58:14.688Z,15.22
2022-09-01T02:59:14.724Z,15.12
2022-09-01T03:00:14.661Z,15.12
2022-09-01T03:01:14.702Z,15.04
2022-09-01T03:02:14.659Z,15.07
2022-09-01T03:03:14.631Z,15.05
2022-09-01T03:04:14.627Z,15.19
2022-09-01T03:05:14.629Z,15.05
2022-09-01T03:06:14.580Z,15.01
2022-09-01T03:07:14.574Z,15.01
2022-09-01T03:08:14.571Z,15.03
2022-09-01T03:09:14.588Z,15.03
2022-09-01T03:10:14.526Z,15.01
2022-09-01T03:11:14.545Z,14.91
2022-09-01T03:12:14.544Z,14.94
2022-09-01T03:13:14.510Z,14.93
2022-09-01T03:14:14.556Z,14.80
2022-09-01T03:15:14.479Z,14.83
2022-09-01T03:16:14.644Z,14.74
2022-09-01T03:17:14.464Z,14.74
2022-09-01T03:18:14.502Z,14.82
2022-09-01T03:19:14.474Z,14.85
2022-09-01T03:20:14.482Z,14.85
2022-09-01T03:21:14.456Z,14.79
2022-09-01T03:22:14.441Z,14.83
2022-09-01T03:23:14.396Z,14.85
2022-09-01T03:24:14.429Z,14.85
2022-09-01T03:25:14.373Z,14.79
2022-09-01T03:26:14.419Z,14.78
2022-09-01T03:27:14.390Z,14.69
2022-09-01T03:28:14.354Z,14.63
2022-09-01T03:29:14.349Z,14.64
2022-09-01T03:30:14.332Z,14.66
2022-09-01T03:31:14.454Z,14.61
2022-09-01T03:32:14.355Z,14.61
2022-09-01T03:33:14.301Z,14.63
2022-09-01T03:34:14.277Z,14.54
2022-09-01T03:35:14.266Z,14.49
2022-09-01T03:36:15.454Z,14.44
2022-09-01T03:37:14.275Z,14.38
2022-09-01T03:38:14.229Z,14.39
2022-09-01T03:39:16.794Z,14.35
2022-09-01T03:40:14.301Z,14.30
2022-09-01T03:41:14.218Z,14.30
2022-09-01T03:42:14.213Z,14.27
2022-09-01T03:43:14.171Z,14.36
2022-09-01T03:44:14.219Z,14.42
2022-09-01T03:45:14.150Z,14.34
2022-09-01T03:46:14.248Z,14.29
2022-09-01T03:47:14.152Z,14.30
2022-09-01T03:48:14.143Z,14.27
2022-09-01T03:49:14.183Z,14.35
2022-09-01T03:50:14.105Z,14.41
2022-09-01T03:51:14.118Z,14.42
2022-09-01T03:52:14.089Z,14.53
2022-09-01T03:53:14.105Z,14.49
2022-09-01T03:54:14.084Z,14.54
2022-09-01T03:55:14.051Z,14.45
2022-09-01T03:56:14.147Z,14.45
2022-09-01T03:57:14.429Z,14.45
2022-09-01T03:58:14.023Z,14.31
2022-09-01T03:59:14.001Z,14.41
2022-09-01T04:00:14.008Z,14.41
2022-09-01T04:01:14.102Z,14.35
2022-09-01T04:02:14.051Z,14.30
2022-09-01T04:03:13.955Z,14.26
2022-09-01T04:04:14.081Z,14.27
2022-09-01T04:05:14.002Z,14.31
2022-09-01T04:06:14.020Z,14.26
2022-09-01T04:07:19.265Z,14.23
2022-09-01T04:08:14.918Z,14.11
2022-09-01T04:09:13.960Z,14.11
2022-09-01T04:10:13.918Z,14.13
2022-09-01T04:11:13.929Z,14.20
2022-09-01T04:12:13.884Z,14.38
2022-09-01T04:13:13.883Z,14.35
2022-09-01T04:14:13.913Z,14.27
2022-09-01T04:15:13.852Z,14.29
2022-09-01T04:16:13.883Z,14.35
2022-09-01T04:17:13.834Z,14.26
2022-09-01T04:18:13.821Z,14.27
2022-09-01T04:19:13.787Z,14.26
2022-09-01T04:20:13.770Z,14.30
2022-09-01T04:21:13.786Z,14.16
2022-09-01T04:22:13.801Z,14.04
2022-09-01T04:23:13.757Z,14.02
2022-09-01T04:24:13.755Z,14.01
2022-09-01T04:25:13.732Z,14.09
2022-09-01T04:26:13.725Z,14.12
2022-09-01T04:27:13.778Z,14.09
2022-09-01T04:28:13.712Z,14.16
2022-09-01T04:29:13.703Z,14.06
2022-09-01T04:30:13.676Z,14.09
2022-09-01T04:31:13.750Z,13.98
2022-09-01T04:32:13.657Z,13.88
2022-09-01T04:33:13.640Z,13.84
2022-09-01T04:34:13.652Z,13.76
2022-09-01T04:35:13.649Z,13.68
2022-09-01T04:36:13.620Z,13.73
2022-09-01T04:37:13.624Z,13.57
2022-09-01T04:38:13.653Z,13.47
2022-09-01T04:39:13.601Z,13.31
2022-09-01T04:40:13.660Z,13.31
2022-09-01T04:41:13.614Z,13.53
2022-09-01T04:42:13.544Z,13.61
2022-09-01T04:43:13.550Z,13.57
2022-09-01T04:44:13.569Z,13.55
2022-09-01T04:45:17.365Z,13.53
2022-09-01T04:46:14.596Z,13.48
2022-09-01T04:47:13.489Z,13.38
2022-09-01T04:48:13.501Z,13.54
2022-09-01T04:49:13.508Z,13.46
2022-09-01T04:50:13.454Z,13.55
2022-09-01T04:51:13.465Z,13.57
2022-09-01T04:52:13.478Z,13.68
2022-09-01T04:53:13.451Z,13.66
2022-09-01T04:54:13.414Z,13.68
2022-09-01T04:55:13.409Z,13.71
2022-09-01T04:56:13.425Z,13.68
2022-09-01T04:57:13.384Z,13.79
2022-09-01T04:58:13.397Z,13.83
2022-09-01T04:59:13.393Z,13.79
2022-09-01T05:00:13.341Z,13.71
2022-09-01T05:01:13.409Z,13.75
2022-09-01T05:02:13.388Z,13.76
2022-09-01T05:03:13.356Z,13.72
2022-09-01T05:04:13.313Z,13.72
2022-09-01T05:05:13.289Z,13.76
2022-09-01T05:06:13.289Z,13.76
2022-09-01T05:07:13.281Z,13.73
2022-09-01T05:08:13.245Z,13.93
2022-09-01T05:09:14.292Z,13.99
2022-09-01T05:10:13.225Z,13.88
2022-09-01T05:11:13.289Z,13.98
2022-09-01T05:12:15.982Z,14.01
2022-09-01T05:13:13.216Z,14.11
2022-09-01T05:14:13.196Z,14.09
2022-09-01T05:15:13.173Z,14.11
2022-09-01T05:16:13.580Z,14.21
2022-09-01T05:17:13.163Z,14.19
2022-09-01T05:18:13.143Z,14.06
2022-09-01T05:19:13.138Z,14.06
2022-09-01T05:20:13.166Z,14.11
2022-09-01T05:21:13.148Z,14.02
2022-09-01T05:22:13.099Z,14.12
2022-09-01T05:23:13.101Z,14.06
2022-09-01T05:24:13.082Z,14.08
2022-09-01T05:25:13.097Z,14.19
2022-09-01T05:26:13.086Z,14.17
2022-09-01T05:27:13.066Z,14.29
2022-09-01T05:28:13.181Z,14.24
2022-09-01T05:29:13.005Z,14.12
2022-09-01T05:30:13.037Z,14.29
2022-09-01T05:31:13.114Z,14.23
2022-09-01T05:32:13.057Z,14.16
2022-09-01T05:33:12.975Z,14.23
2022-09-01T05:34:13.786Z,14.31
2022-09-01T05:35:12.976Z,14.26
2022-09-01T05:36:12.934Z,14.29
2022-09-01T05:37:13.057Z,14.24
2022-09-01T05:38:12.967Z,14.31
2022-09-01T05:39:12.931Z,14.30
2022-09-01T05:40:12.976Z,14.24
2022-09-01T05:41:12.894Z,14.39
2022-09-01T05:42:12.898Z,14.39
2022-09-01T05:43:12.969Z,14.41
2022-09-01T05:44:12.852Z,14.34
2022-09-01T05:45:12.860Z,14.31
2022-09-01T05:46:12.973Z,14.35
2022-09-01T05:47:14.770Z,14.38
2022-09-01T05:48:13.811Z,14.44
2022-09-01T05:49:12.847Z,14.38
2022-09-01T05:50:15.411Z,14.45
2022-09-01T05:51:33.524Z,14.56
2022-09-01T05:52:14.045Z,14.57
2022-09-01T05:53:12.851Z,14.67
2022-09-01T05:54:12.752Z,14.69
2022-09-01T05:55:12.736Z,14.85
2022-09-01T05:56:12.945Z,14.83
2022-09-01T05:57:33.149Z,14.98
2022-09-01T05:58:13.805Z,15.00
2022-09-01T05:59:28.361Z,15.01
2022-09-01T06:00:13.708Z,14.93
2022-09-01T06:01:12.686Z,14.95
2022-09-01T06:02:12.788Z,14.85
2022-09-01T06:03:12.932Z,14.98
2022-09-01T06:04:12.639Z,15.09
2022-09-01T06:05:12.655Z,15.12
2022-09-01T06:06:12.656Z,15.18
2022-09-01T06:07:15.717Z,15.27
2022-09-01T06:08:12.952Z,15.40
2022-09-01T06:09:12.584Z,15.58
2022-09-01T06:10:12.577Z,15.67
2022-09-01T06:11:12.579Z,15.67
2022-09-01T06:12:12.577Z,15.48
2022-09-01T06:13:12.567Z,15.59
2022-09-01T06:14:12.550Z,15.59
2022-09-01T06:15:12.555Z,15.62
2022-09-01T06:16:12.679Z,15.76
2022-09-01T06:17:13.565Z,15.73
2022-09-01T06:18:12.495Z,15.74
2022-09-01T06:19:12.482Z,15.73
2022-09-01T06:20:12.460Z,15.71
2022-09-01T06:21:12.461Z,15.81
2022-09-01T06:22:12.597Z,15.81
2022-09-01T06:23:12.531Z,15.98
2022-09-01T06:24:12.460Z,15.95
2022-09-01T06:25:12.507Z,15.99
2022-09-01T06:26:12.646Z,15.92
2022-09-01T06:27:12.382Z,15.95
2022-09-01T06:28:12.371Z,15.93
2022-09-01T06:29:12.365Z,16.03
2022-09-01T06:30:12.389Z,16.04
2022-09-01T06:31:12.404Z,15.99
2022-09-01T06:32:12.393Z,16.04
2022-09-01T06:33:12.456Z,15.98
2022-09-01T06:34:12.408Z,15.92
2022-09-01T06:35:12.920Z,15.99
2022-09-01T06:36:12.304Z,16.08
2022-09-01T06:37:12.286Z,16.07
2022-09-01T06:38:12.274Z,16.18
2022-09-01T06:39:12.285Z,16.29
2022-09-01T06:40:12.315Z,16.36
2022-09-01T06:41:12.275Z,16.52
2022-09-01T06:42:12.327Z,16.59
2022-09-01T06:43:13.338Z,16.77
2022-09-01T06:44:14.641Z,16.51
2022-09-01T06:45:12.194Z,16.51
2022-09-01T06:46:12.268Z,16.66
2022-09-01T06:47:12.174Z,16.73
2022-09-01T06:48:12.186Z,16.80
2022-09-01T06:49:12.214Z,16.84
2022-09-01T06:50:12.259Z,16.88
2022-09-01T06:51:17.097Z,16.66
2022-09-01T06:52:13.197Z,16.57
2022-09-01T06:54:14.735Z,16.44
2022-09-01T06:55:12.073Z,16.33
2022-09-01T06:56:12.063Z,16.29
2022-09-01T06:58:14.007Z,16.26
2022-09-01T06:59:12.044Z,16.29
2022-09-01T07:00:12.194Z,16.22
2022-09-01T07:01:12.367Z,16.26
2022-09-01T07:02:17.228Z,16.18
2022-09-01T07:03:13.104Z,16.34
2022-09-01T07:04:13.382Z,16.41
2022-09-01T07:05:58.863Z,16.37
2022-09-01T07:06:59.079Z,16.29
2022-09-01T07:08:13.000Z,16.40
2022-09-01T07:09:20.181Z,16.77
2022-09-01T07:12:07.139Z,17.32
2022-09-01T07:12:28.373Z,17.27
2022-09-01T07:13:12.902Z,17.76
2022-09-01T07:14:15.666Z,18.34
2022-09-01T07:17:28.144Z,19.10
2022-09-01T07:18:14.223Z,19.09
2022-09-01T07:19:12.335Z,18.97
2022-09-01T07:20:27.607Z,19.28
2022-09-01T07:22:35.845Z,20.16
2022-09-01T07:23:12.776Z,20.17
2022-09-01T07:24:11.813Z,20.63
2022-09-01T07:25:12.750Z,21.03
2022-09-01T07:26:11.771Z,20.97
2022-09-01T07:27:11.798Z,21.00
2022-09-01T07:28:25.436Z,21.00
2022-09-01T07:29:12.733Z,21.34
2022-09-01T07:30:11.701Z,21.83
2022-09-01T07:35:12.649Z,21.94
2022-09-01T07:36:27.975Z,21.52
2022-09-01T07:42:59.234Z,16.95
2022-09-01T07:43:12.987Z,22.89
2022-09-01T07:44:11.593Z,22.84
2022-09-01T07:45:27.861Z,22.48
2022-09-01T07:47:20.557Z,22.48
2022-09-01T07:48:36.055Z,22.67
2022-09-01T07:50:37.029Z,23.06
2022-09-01T07:52:12.475Z,23.53
2022-09-01T07:53:11.601Z,23.49
2022-09-01T07:54:11.778Z,23.78
2022-09-01T07:55:11.595Z,24.14
2022-09-01T07:56:11.433Z,24.15
2022-09-01T07:57:11.421Z,24.30
2022-09-01T07:58:11.397Z,24.77
2022-09-01T07:59:15.367Z,24.64
2022-09-01T08:00:11.385Z,24.33
2022-09-01T08:01:11.430Z,24.31
2022-09-01T08:02:11.596Z,24.68
2022-09-01T08:03:11.547Z,25.16
2022-09-01T08:04:13.007Z,25.38
2022-09-01T08:05:11.321Z,25.19
2022-09-01T08:06:11.349Z,24.87
2022-09-01T08:07:15.442Z,24.68
2022-09-01T08:08:18.840Z,24.77
2022-09-01T08:09:17.302Z,24.51
2022-09-01T08:10:12.277Z,24.67
2022-09-01T08:11:11.344Z,24.68
2022-09-01T08:12:11.597Z,24.45
2022-09-01T08:13:15.248Z,24.44
2022-09-01T08:14:11.226Z,24.44
2022-09-01T08:15:41.187Z,24.89
2022-09-01T08:16:19.521Z,24.46
2022-09-01T08:18:14.354Z,24.55
2022-09-01T08:19:18.363Z,24.80
2022-09-01T08:20:14.085Z,25.05
2022-09-01T08:21:13.036Z,25.14
2022-09-01T08:22:12.996Z,25.24
2022-09-01T08:23:11.137Z,25.24
2022-09-01T08:24:11.122Z,25.51
2022-09-01T08:25:11.116Z,26.01
2022-09-01T08:26:11.103Z,26.50
2022-09-01T08:27:11.087Z,26.49
2022-09-01T08:28:11.083Z,26.21
2022-09-01T08:29:11.171Z,25.82
2022-09-01T08:30:14.273Z,25.69
2022-09-01T08:31:11.544Z,25.60
2022-09-01T08:32:11.032Z,25.69
2022-09-01T08:33:11.098Z,25.67
2022-09-01T08:34:11.017Z,25.66
2022-09-01T08:35:11.094Z,25.42
2022-09-01T08:36:10.983Z,25.31
2022-09-01T08:37:10.997Z,25.44
2022-09-01T08:38:11.522Z,25.54
2022-09-01T08:39:12.029Z,25.97
2022-09-01T08:40:11.163Z,25.97
2022-09-01T08:41:10.969Z,26.35
2022-09-01T08:42:10.937Z,26.54
2022-09-01T08:43:19.506Z,26.51
2022-09-01T08:44:11.911Z,25.97
2022-09-01T08:45:10.941Z,26.03
2022-09-01T08:46:10.946Z,26.21
2022-09-01T08:47:13.627Z,25.82
2022-09-01T08:49:25.369Z,25.94
2022-09-01T08:50:11.907Z,26.31
2022-09-01T08:51:15.089Z,26.61
2022-09-01T08:52:11.834Z,26.83
2022-09-01T08:53:10.845Z,27.03
2022-09-01T08:54:10.827Z,26.83
2022-09-01T08:55:10.838Z,26.54
2022-09-01T08:56:11.045Z,26.47
2022-09-01T08:57:11.083Z,26.41
2022-09-01T08:58:10.774Z,25.90
2022-09-01T08:59:10.751Z,25.86
2022-09-01T09:00:10.802Z,26.11
2022-09-01T09:01:10.837Z,25.97
2022-09-01T09:02:10.726Z,25.97
2022-09-01T09:03:10.802Z,26.03
2022-09-01T09:04:10.718Z,26.03
2022-09-01T09:05:15.797Z,25.94
2022-09-01T09:06:10.842Z,25.93
2022-09-01T09:07:10.673Z,25.91
2022-09-01T09:08:10.654Z,25.96
2022-09-01T09:09:10.665Z,26.31
2022-09-01T09:10:10.731Z,26.57
2022-09-01T09:11:10.612Z,26.49
2022-09-01T09:12:10.651Z,26.47
2022-09-01T09:13:11.003Z,26.36
2022-09-01T09:14:10.916Z,26.50
2022-09-01T09:15:10.793Z,26.31
2022-09-01T09:16:10.645Z,26.24
2022-09-01T09:17:10.565Z,26.31
2022-09-01T09:18:34.438Z,26.09
2022-09-01T09:19:10.587Z,26.17
2022-09-01T09:20:10.565Z,26.34
2022-09-01T09:21:10.496Z,26.61
2022-09-01T09:22:11.503Z,26.96
2022-09-01T09:23:11.330Z,27.15
2022-09-01T09:24:10.673Z,27.27
2022-09-01T09:25:10.485Z,27.28
2022-09-01T09:26:10.932Z,27.20
2022-09-01T09:27:11.197Z,27.11
2022-09-01T09:28:10.485Z,27.05
2022-09-01T09:29:10.421Z,27.38
2022-09-01T09:30:11.724Z,27.43
2022-09-01T09:31:12.043Z,27.21
2022-09-01T09:32:44.369Z,27.20
2022-09-01T09:34:11.387Z,27.40
2022-09-01T09:35:10.377Z,27.38
2022-09-01T09:36:10.345Z,27.40
2022-09-01T09:37:10.376Z,27.11
2022-09-01T09:38:10.355Z,27.03
2022-09-01T09:39:10.312Z,27.15
2022-09-01T09:40:12.899Z,27.16
2022-09-01T09:41:17.316Z,27.38
2022-09-01T09:42:11.391Z,27.45
2022-09-01T09:43:10.295Z,27.35
2022-09-01T09:44:11.465Z,27.40
2022-09-01T09:45:10.273Z,27.42
2022-09-01T09:46:23.347Z,27.49
2022-09-01T09:47:33.575Z,27.35
2022-09-01T09:48:11.281Z,27.38
2022-09-01T09:49:10.265Z,27.35
2022-09-01T09:50:10.628Z,27.23
2022-09-01T09:51:10.366Z,27.20
2022-09-01T09:52:10.320Z,27.34
2022-09-01T09:53:10.175Z,26.76
2022-09-01T09:54:10.186Z,26.68
2022-09-01T09:55:10.188Z,26.81
2022-09-01T09:56:10.147Z,26.86
2022-09-01T09:57:10.132Z,27.20
2022-09-01T09:58:12.547Z,27.27
2022-09-01T09:59:10.831Z,27.20
2022-09-01T10:00:11.269Z,27.18
2022-09-01T10:01:10.130Z,27.11
2022-09-01T10:02:10.077Z,27.33
2022-09-01T10:03:11.251Z,27.62
2022-09-01T10:04:10.169Z,28.06
2022-09-01T10:05:10.081Z,28.11
2022-09-01T10:06:10.059Z,28.03
2022-09-01T10:07:10.169Z,27.84
2022-09-01T10:08:12.264Z,27.62
2022-09-01T10:09:10.035Z,27.35
2022-09-01T10:10:09.994Z,27.25
2022-09-01T10:11:10.002Z,27.24
2022-09-01T10:12:10.026Z,27.33
2022-09-01T10:13:09.962Z,27.23
2022-09-01T10:14:10.053Z,27.25
2022-09-01T10:15:12.698Z,27.13
2022-09-01T10:16:11.312Z,27.53
2022-09-01T10:17:13.125Z,27.63
2022-09-01T10:18:20.033Z,27.76
2022-09-01T10:19:12.800Z,27.88
2022-09-01T10:20:11.353Z,28.02
2022-09-01T10:21:09.905Z,28.11
2022-09-01T10:22:09.907Z,27.40
2022-09-01T10:23:15.332Z,26.94
2022-09-01T10:24:21.002Z,26.24
2022-09-01T10:25:10.961Z,25.57
2022-09-01T10:26:10.246Z,25.75
2022-09-01T10:27:13.936Z,26.06
2022-09-01T10:28:10.802Z,26.19
2022-09-01T10:29:12.111Z,26.50
2022-09-01T10:30:14.504Z,26.94
2022-09-01T10:31:11.137Z,27.01
2022-09-01T10:32:31.300Z,27.20
2022-09-01T10:33:19.276Z,27.31
2022-09-01T10:34:11.730Z,27.65
2022-09-01T10:35:09.892Z,27.69
2022-09-01T10:36:09.738Z,27.48
2022-09-01T10:37:11.211Z,27.58
2022-09-01T10:38:17.469Z,27.76
2022-09-01T10:39:10.689Z,28.02
2022-09-01T10:40:09.751Z,27.99
2022-09-01T10:41:14.154Z,28.01
2022-09-01T10:42:12.981Z,28.13
2022-09-01T10:43:13.021Z,28.23
2022-09-01T10:44:10.297Z,27.95
2022-09-01T10:45:09.651Z,27.52
2022-09-01T10:46:15.279Z,27.72
2022-09-01T10:47:13.805Z,27.80
2022-09-01T10:48:13.292Z,27.81
2022-09-01T10:49:09.768Z,27.39
2022-09-01T10:50:09.750Z,27.42
2022-09-01T10:51:09.780Z,27.74
2022-09-01T10:52:14.015Z,28.21
2022-09-01T10:53:09.883Z,28.54
2022-09-01T10:54:09.547Z,28.80
2022-09-01T10:55:09.566Z,28.98
2022-09-01T10:56:23.455Z,29.18
2022-09-01T10:57:12.195Z,29.23
2022-09-01T10:59:30.891Z,29.29
2022-09-01T10:59:44.277Z,29.23
2022-09-01T11:00:34.795Z,29.07
2022-09-01T11:01:11.374Z,29.15
2022-09-01T11:02:27.674Z,28.87
2022-09-01T11:04:10.561Z,28.43
2022-09-01T11:05:09.525Z,28.50
2022-09-01T11:06:13.130Z,28.54
2022-09-01T11:07:12.769Z,27.87
2022-09-01T11:08:16.467Z,27.72
2022-09-01T11:09:10.431Z,27.58
2022-09-01T11:10:31.618Z,27.09
2022-09-01T11:11:10.898Z,27.23
2022-09-01T11:12:09.378Z,27.50
2022-09-01T11:13:09.352Z,27.76
2022-09-01T11:14:09.330Z,27.20
2022-09-01T11:15:09.325Z,27.08
2022-09-01T11:16:10.170Z,26.79
2022-09-01T11:17:09.769Z,26.23
2022-09-01T11:18:10.329Z,25.82
2022-09-01T11:19:16.053Z,25.96
2022-09-01T11:20:10.710Z,25.91
2022-09-01T11:21:09.279Z,26.23
2022-09-01T11:22:09.255Z,26.68
2022-09-01T11:23:09.240Z,27.21
2022-09-01T11:24:09.252Z,27.59
2022-09-01T11:25:12.004Z,28.01
2022-09-01T11:26:24.719Z,27.78
2022-09-01T11:27:10.738Z,27.87
2022-09-01T11:28:09.204Z,28.11
2022-09-01T11:29:09.182Z,28.65
2022-09-01T11:30:09.207Z,28.77
2022-09-01T11:31:09.198Z,28.87
2022-09-01T11:32:09.227Z,28.80
2022-09-01T11:33:09.165Z,29.05
2022-09-01T11:34:09.128Z,28.92
2022-09-01T11:35:09.143Z,28.89
2022-09-01T11:36:10.344Z,28.48
2022-09-01T11:37:09.115Z,28.05
2022-09-01T11:38:09.158Z,28.17
2022-09-01T11:39:09.081Z,28.27
2022-09-01T11:40:09.149Z,28.77
2022-09-01T11:41:09.080Z,29.12
2022-09-01T11:42:09.053Z,29.17
2022-09-01T11:43:12.525Z,29.35
2022-09-01T11:44:09.773Z,29.15
2022-09-01T11:45:12.827Z,29.05
2022-09-01T11:46:10.108Z,28.74
2022-09-01T11:47:13.636Z,28.89
2022-09-01T11:48:09.994Z,29.07
2022-09-01T11:49:09.009Z,28.70
2022-09-01T11:50:08.973Z,28.76
2022-09-01T11:51:08.974Z,28.50
2022-09-01T11:52:09.957Z,27.81
2022-09-01T11:53:09.101Z,27.38
2022-09-01T11:54:09.288Z,27.55
2022-09-01T11:55:08.938Z,27.40
2022-09-01T11:56:08.930Z,27.23
2022-09-01T11:57:08.924Z,26.98
2022-09-01T11:58:08.891Z,26.78
2022-09-01T11:59:08.889Z,27.21
2022-09-01T12:00:08.905Z,27.72
2022-09-01T12:01:09.002Z,28.28
2022-09-01T12:02:09.431Z,28.95
2022-09-01T12:03:09.563Z,29.42
2022-09-01T12:04:09.285Z,29.62
2022-09-01T12:05:08.850Z,29.60
2022-09-01T12:06:08.869Z,29.81
2022-09-01T12:07:10.856Z,30.19
2022-09-01T12:08:08.825Z,30.60
2022-09-01T12:09:08.781Z,30.73
2022-09-01T12:10:08.823Z,30.40
2022-09-01T12:11:09.258Z,29.32
2022-09-01T12:12:09.527Z,28.17
2022-09-01T12:13:08.786Z,28.06
2022-09-01T12:14:11.361Z,28.20
2022-09-01T12:15:08.723Z,28.60
2022-09-01T12:16:21.114Z,29.07
2022-09-01T12:17:09.764Z,28.69
2022-09-01T12:18:08.695Z,28.42
2022-09-01T12:19:08.753Z,27.95
2022-09-01T12:20:09.118Z,27.40
2022-09-01T12:21:09.725Z,27.03
2022-09-01T12:22:09.762Z,26.96
2022-09-01T12:23:08.651Z,26.29
2022-09-01T12:24:08.636Z,26.31
2022-09-01T12:25:08.624Z,26.59
2022-09-01T12:26:08.635Z,26.94
2022-09-01T12:27:08.600Z,27.34
2022-09-01T12:28:11.110Z,27.87
2022-09-01T12:29:08.732Z,27.90
2022-09-01T12:30:08.945Z,28.13
2022-09-01T12:31:09.246Z,28.14
2022-09-01T12:32:08.587Z,28.33
2022-09-01T12:33:24.406Z,28.74
2022-09-01T12:34:09.548Z,29.11
2022-09-01T12:35:11.510Z,29.07
2022-09-01T12:36:08.523Z,29.07
2022-09-01T12:37:08.540Z,29.45
2022-09-01T12:38:09.722Z,29.74
2022-09-01T12:39:09.869Z,29.58
2022-09-01T12:40:09.214Z,29.32
2022-09-01T12:41:08.558Z,29.23
2022-09-01T12:42:08.469Z,29.60
2022-09-01T12:43:08.439Z,30.06
2022-09-01T12:44:08.465Z,29.70
2022-09-01T12:45:09.049Z,29.12
2022-09-01T12:46:08.597Z,29.36
2022-09-01T12:47:09.328Z,29.71
2022-09-01T12:48:09.846Z,29.20
2022-09-01T12:49:08.421Z,29.10
2022-09-01T12:50:08.385Z,29.21
2022-09-01T12:51:09.410Z,28.83
2022-09-01T12:52:08.347Z,28.46
2022-09-01T12:53:08.548Z,28.89
2022-09-01T12:54:09.449Z,28.62
2022-09-01T12:55:08.319Z,28.94
2022-09-01T12:56:10.019Z,28.38
2022-09-01T12:57:08.347Z,28.54
2022-09-01T12:58:08.388Z,28.91
2022-09-01T12:59:14.207Z,28.80
2022-09-01T13:00:09.273Z,28.89
2022-09-01T13:01:09.224Z,27.88
2022-09-01T13:02:09.403Z,27.33
2022-09-01T13:03:09.180Z,27.46
2022-09-01T13:04:08.299Z,27.58
2022-09-01T13:05:08.842Z,27.50
2022-09-01T13:06:08.222Z,27.49
2022-09-01T13:07:09.011Z,27.50
2022-09-01T13:08:08.192Z,27.58
2022-09-01T13:09:08.163Z,27.52
2022-09-01T13:10:08.155Z,27.45
2022-09-01T13:11:08.146Z,27.39
2022-09-01T13:12:08.365Z,27.35
2022-09-01T13:13:08.581Z,27.27
2022-09-01T13:14:08.334Z,27.20
2022-09-01T13:15:08.187Z,27.15